sensor_id;sensor_type;location;lat;lon;timestamp;pressure;altitude;pressure_sealevel;temperature;humidity
61740;BME280;47645;45.288;12.038;2023-07-20T00:01:38;1009.1896913749403;;;26.049609375;79.88997694885552
61740;BME280;47645;45.288;12.038;2023-07-20T00:11:39;1008.5905313082085;;;25.738671875;78.89150920370888
61740;BME280;47645;45.288;12.038;2023-07-20T00:21:41;1009.3173145847963;;;25.932421875;83.4798365794621
61740;BME280;47645;45.288;12.038;2023-07-20T00:31:42;1009.3127812885479;;;25.738671875;87.17687800510328
61740;BME280;47645;45.288;12.038;2023-07-20T00:41:43;1009.210887652414;;;25.44296875;87.37554863803251
61740;BME280;47645;45.288;12.038;2023-07-20T00:51:45;1008.6139308724005;;;24.9740234375;91.48882381008968
61740;BME280;47645;45.288;12.038;2023-07-20T01:01:47;1008.6304989185903;;;25.5603515625;77.86605032961836
61740;BME280;47645;45.288;12.038;2023-07-20T01:11:53;1008.8409340575158;;;24.9791015625;86.33729025242872
61740;BME280;47645;45.288;12.038;2023-07-20T01:21:55;1009.2111510830451;;;23.69453125;100
61740;BME280;47645;45.288;12.038;2023-07-20T01:31:53;1009.4092121930139;;;23.883203125;100
61740;BME280;47645;45.288;12.038;2023-07-20T01:41:53;1009.1461247143129;;;23.9392578125;92.07362182893674
61740;BME280;47645;45.288;12.038;2023-07-20T01:51:55;1008.0836784718986;;;24.912890625;87.86456552810736
61740;BME280;47645;45.288;12.038;2023-07-20T02:01:56;1008.9281179197615;;;24.525390625;89.41826171168853
61740;BME280;47645;45.288;12.038;2023-07-20T02:11:58;1008.960628993003;;;23.562109375;100
61740;BME280;47645;45.288;12.038;2023-07-20T02:22:00;1008.7181795339767;;;24.183984375;93.64656180483325
61740;BME280;47645;45.288;12.038;2023-07-20T02:32:01;1008.3704804218906;;;24.1583984375;97.18646043295665
61740;BME280;47645;45.288;12.038;2023-07-20T02:42:03;1008.1782471402017;;;23.0421875;100
61740;BME280;47645;45.288;12.038;2023-07-20T02:52:05;1008.1793652473193;;;24.10234375;100
61740;BME280;47645;45.288;12.038;2023-07-20T03:02:06;1008.3003743667026;;;23.475390625;100
61740;BME280;47645;45.288;12.038;2023-07-20T03:12:08;1008.2418913237838;;;23.8068359375;100
61740;BME280;47645;45.288;12.038;2023-07-20T03:22:09;1008.1343873235617;;;24.066796875;94.13978711073932
61740;BME280;47645;45.288;12.038;2023-07-20T03:32:11;1008.0118124758633;;;23.883203125;100
61740;BME280;47645;45.288;12.038;2023-07-20T03:42:12;1008.207630187217;;;23.9240234375;92.3727250097129
61740;BME280;47645;45.288;12.038;2023-07-20T03:52:14;1008.3673705497918;;;24.2501953125;88.79829765606152
61740;BME280;47645;45.288;12.038;2023-07-20T04:02:15;1008.3467532710799;;;24.291015625;81.77995184553947
61740;BME280;47645;45.288;12.038;2023-07-20T04:12:17;1008.5109706960314;;;24.2400390625;87.75456477222527
61740;BME280;47645;45.288;12.038;2023-07-20T04:22:18;1008.5684392546;;;24.62734375;81.8556344767855
61740;BME280;47645;45.288;12.038;2023-07-20T04:32:20;1008.7745373533218;;;24.9435546875;79.52332925037963
61740;BME280;47645;45.288;12.038;2023-07-20T04:42:21;1008.9123944738302;;;25.106640625;77.03671424442146
61740;BME280;47645;45.288;12.038;2023-07-20T04:52:23;1009.0520051567698;;;25.2390625;74.87070051097396
61740;BME280;47645;45.288;12.038;2023-07-20T05:02:24;1009.0936542555158;;;25.4125;74.4071618594189
61740;BME280;47645;45.288;12.038;2023-07-20T05:12:26;1009.0986835345394;;;25.4634765625;79.44849371060619
61740;BME280;47645;45.288;12.038;2023-07-20T05:22:27;1008.9796588702563;;;25.5603515625;86.87160196329856
61740;BME280;47645;45.288;12.038;2023-07-20T05:32:29;1008.924669247537;;;25.5806640625;78.4995578825835
61740;BME280;47645;45.288;12.038;2023-07-20T05:42:30;1009.0126179730105;;;25.4328125;85.76558246633059
61740;BME280;47645;45.288;12.038;2023-07-20T05:52:32;1009.0897194862503;;;25.4685546875;80.05733605885696
61740;BME280;47645;45.288;12.038;2023-07-20T06:02:34;1009.1914891069341;;;25.6826171875;91.09189083227656
61740;BME280;47645;45.288;12.038;2023-07-20T06:12:34;1009.1023259999633;;;25.962890625;92.42328403590358
61740;BME280;47645;45.288;12.038;2023-07-20T06:22:36;1009.0465964572381;;;26.3453125;92.33055082349117
61740;BME280;47645;45.288;12.038;2023-07-20T06:32:38;1009.1572717512222;;;26.5083984375;85.75681001487756
61740;BME280;47645;45.288;12.038;2023-07-20T06:42:39;1009.210794283908;;;26.8345703125;82.51762066542064
61740;BME280;47645;45.288;12.038;2023-07-20T06:52:41;1009.210098411719;;;26.972265625;84.19374500125271
61740;BME280;47645;45.288;12.038;2023-07-20T07:02:42;1009.2379736892738;;;27.2119140625;79.61478073147813
61740;BME280;47645;45.288;12.038;2023-07-20T07:12:43;1009.1917342106566;;;27.471875;77.7629945685343
61740;BME280;47645;45.288;12.038;2023-07-20T07:22:46;1009.1540204741501;;;27.7470703125;73.61467210861261
61740;BME280;47645;45.288;12.038;2023-07-20T07:32:46;1009.1554815373063;;;27.8185546875;77.3118127784349
61740;BME280;47645;45.288;12.038;2023-07-20T07:42:48;1009.2102019582416;;;28.078515625;76.83523749966702
61740;BME280;47645;45.288;12.038;2023-07-20T07:52:49;1009.208339297238;;;28.1599609375;73.1304081866307
61740;BME280;47645;45.288;12.038;2023-07-20T08:02:51;1009.2426736815859;;;28.272265625;70.02235131620779
61740;BME280;47645;45.288;12.038;2023-07-20T08:12:52;1009.3193945991328;;;28.6595703125;68.28404444136243
61740;BME280;47645;45.288;12.038;2023-07-20T08:22:55;1009.4301383322263;;;29.0369140625;63.6362908097039
61740;BME280;47645;45.288;12.038;2023-07-20T08:32:56;1009.4527296483694;;;29.61796875;66.62092775276797
61740;BME280;47645;45.288;12.038;2023-07-20T08:42:58;1009.4370363652101;;;29.826953125;57.05865379816912
61740;BME280;47645;45.288;12.038;2023-07-20T08:53:00;1009.4098922988217;;;30.428515625;60.33168639501874
61740;BME280;47645;45.288;12.038;2023-07-20T09:03:02;1009.4231786669767;;;30.708984375;53.26291354510361
61740;BME280;47645;45.288;12.038;2023-07-20T09:13:02;1009.3300036261566;;;30.9791015625;50.87958520074587
61740;BME280;47645;45.288;12.038;2023-07-20T09:23:05;1009.2917557670988;;;31.0861328125;51.631636778437965
61740;BME280;47645;45.288;12.038;2023-07-20T09:33:18;1009.1953352416681;;;31.427734375;54.86883270926442
61740;BME280;47645;45.288;12.038;2023-07-20T09:43:09;1009.1483794645027;;;31.9783203125;52.83063633976749
61740;BME280;47645;45.288;12.038;2023-07-20T09:53:11;1009.2134470694745;;;32.5185546875;51.068258191221986
61740;BME280;47645;45.288;12.038;2023-07-20T10:03:14;1009.1913670282331;;;32.467578125;47.69090801690571
61740;BME280;47645;45.288;12.038;2023-07-20T10:13:17;1009.0946050460559;;;33.2220703125;50.11631461770991
61740;BME280;47645;45.288;12.038;2023-07-20T10:23:15;1008.9789503684822;;;34.338671875;49.136875859697135
61740;BME280;47645;45.288;12.038;2023-07-20T10:33:17;1009.0700385559466;;;34.5884765625;46.55684459497347
61740;BME280;47645;45.288;12.038;2023-07-20T10:43:19;1009.1113556259527;;;35.8220703125;45.6244402590705
61740;BME280;47645;45.288;12.038;2023-07-20T10:53:21;1009.1139689999069;;;36.6021484375;45.67090333176447
61740;BME280;47645;45.288;12.038;2023-07-20T11:03:28;1008.8905991216158;;;36.8876953125;41.92455946390514
61740;BME280;47645;45.288;12.038;2023-07-20T11:13:27;1008.8405099623662;;;37.5453125;42.50119581510789
61740;BME280;47645;45.288;12.038;2023-07-20T11:23:29;1008.7859695746167;;;37.9021484375;42.01756659996264
61740;BME280;47645;45.288;12.038;2023-07-20T11:33:30;1008.7430974955794;;;37.0609375;33.983246831478375
61740;BME280;47645;45.288;12.038;2023-07-20T11:43:32;1008.7163611551671;;;38.121484375;37.579756040206085
61740;BME280;47645;45.288;12.038;2023-07-20T11:53:34;1008.6429264821667;;;39.1919921875;35.9787438796478
61740;BME280;47645;45.288;12.038;2023-07-20T12:03:37;1008.5925645973892;;;38.0806640625;29.815264978837035
61740;BME280;47645;45.288;12.038;2023-07-20T12:13:41;1008.3670644837985;;;39.0900390625;34.97956118009065
61740;BME280;47645;45.288;12.038;2023-07-20T12:23:42;1008.2739285720198;;;40.1455078125;36.06528793894257
61740;BME280;47645;45.288;12.038;2023-07-20T12:33:43;1008.2030905339805;;;39.992578125;36.265696487844295
61740;BME280;47645;45.288;12.038;2023-07-20T12:43:46;1008.194219859586;;;40.7673828125;28.174979184714623
61740;BME280;47645;45.288;12.038;2023-07-20T12:53:48;1008.1729101351397;;;40.0537109375;27.54264320157656
61740;BME280;47645;45.288;12.038;2023-07-20T13:03:50;1008.0432725336324;;;40.1759765625;26.280279881791014
61740;BME280;47645;45.288;12.038;2023-07-20T13:13:53;1007.9147302031474;;;41.409765625;30.7172895606313
61740;BME280;47645;45.288;12.038;2023-07-20T13:23:55;1007.8528457736227;;;39.0646484375;37.75363723690773
61740;BME280;47645;45.288;12.038;2023-07-20T13:33:59;1007.8084407368657;;;39.8701171875;35.55356141003398
61740;BME280;47645;45.288;12.038;2023-07-20T13:44:00;1007.7474601390096;;;40.4564453125;37.934701502487236
61740;BME280;47645;45.288;12.038;2023-07-20T13:54:03;1007.6775832688396;;;39.9619140625;38.13856280392979
61740;BME280;47645;45.288;12.038;2023-07-20T14:04:05;1007.6133199386567;;;39.431640625;34.39130613451346
61740;BME280;47645;45.288;12.038;2023-07-20T14:14:07;1007.4439553733615;;;40.0384765625;38.581704930671734
61740;BME280;47645;45.288;12.038;2023-07-20T14:24:09;1007.3934254816138;;;40.31875;38.7346555739186
61740;BME280;47645;45.288;12.038;2023-07-20T14:34:12;1007.268182904712;;;41.4556640625;37.18165740199288
61740;BME280;47645;45.288;12.038;2023-07-20T14:44:14;1007.2869460642452;;;41.583203125;34.33050237063948
61740;BME280;47645;45.288;12.038;2023-07-20T14:54:17;1007.2217289374297;;;41.8279296875;35.488790562607534
61740;BME280;47645;45.288;12.038;2023-07-20T15:04:19;1007.1727163700322;;;41.7412109375;37.261974625469655
61740;BME280;47645;45.288;12.038;2023-07-20T15:14:21;1007.1589885445744;;;41.700390625;36.76869282408014
61740;BME280;47645;45.288;12.038;2023-07-20T15:24:24;1007.0528649007143;;;41.6189453125;37.22757397354288
61740;BME280;47645;45.288;12.038;2023-07-20T15:34:26;1007.0049130843227;;;41.5220703125;37.252818233638905
61740;BME280;47645;45.288;12.038;2023-07-20T15:44:29;1006.88501022942;;;41.1650390625;36.29539809886867
61740;BME280;47645;45.288;12.038;2023-07-20T15:54:31;1006.8681719132285;;;40.996875;39.55094572054538
61740;BME280;47645;45.288;12.038;2023-07-20T16:04:33;1006.829083760925;;;40.787890625;40.123464467482655
61740;BME280;47645;45.288;12.038;2023-07-20T16:14:35;1006.5946703533633;;;40.4921875;38.828964502132955
61740;BME280;47645;45.288;12.038;2023-07-20T16:24:39;1006.5837622959634;;;40.1658203125;41.19569827659332
61740;BME280;47645;45.288;12.038;2023-07-20T16:34:40;1006.6313771954744;;;39.936328125;41.406637947808214
61740;BME280;47645;45.288;12.038;2023-07-20T16:44:49;1006.5895570892768;;;39.4572265625;40.007581139653134
61740;BME280;47645;45.288;12.038;2023-07-20T16:54:45;1006.6141279083001;;;39.0646484375;42.73210244812149
61740;BME280;47645;45.288;12.038;2023-07-20T17:04:47;1006.5486749971399;;;38.54453125;42.780516085877935
61740;BME280;47645;45.288;12.038;2023-07-20T17:14:50;1006.4668358863304;;;38.15703125;45.316100674805845
61740;BME280;47645;45.288;12.038;2023-07-20T17:24:51;1006.4630089792477;;;37.6779296875;46.850450787061476
61740;BME280;47645;45.288;12.038;2023-07-20T17:34:55;1006.419933902961;;;37.3974609375;46.63981431622826
61740;BME280;47645;45.288;12.038;2023-07-20T17:44:56;1006.3634202810921;;;37.03046875;47.40377936524472
61740;BME280;47645;45.288;12.038;2023-07-20T17:54:59;1006.2545355502807;;;36.6173828125;49.46010141011733
61740;BME280;47645;45.288;12.038;2023-07-20T18:05:00;1006.2467052043503;;;36.056640625;50.74409394776589
61740;BME280;47645;45.288;12.038;2023-07-20T18:15:06;1006.216722440907;;;35.4703125;51.87604948490385
61740;BME280;47645;45.288;12.038;2023-07-20T18:25:06;1006.3738875085254;;;34.7873046875;53.510134458499124
61740;BME280;47645;45.288;12.038;2023-07-20T18:30:06;1006.3574891917784;;;34.5169921875;53.916728441232365
61740;BME280;47645;45.288;12.038;2023-07-20T18:40:08;1006.3571066628123;;;33.9970703125;56.00150846490881
61740;BME280;47645;45.288;12.038;2023-07-20T18:50:10;1006.4347204763922;;;33.5177734375;57.39881789536593
61740;BME280;47645;45.288;12.038;2023-07-20T19:00:12;1006.5754617711438;;;33.038671875;58.58190064359527
61740;BME280;47645;45.288;12.038;2023-07-20T19:10:14;1006.6695884597443;;;32.533984375;59.86543220994545
61740;BME280;47645;45.288;12.038;2023-07-20T19:20:15;1006.7756743195602;;;32.1515625;61.17524551366235
61740;BME280;47645;45.288;12.038;2023-07-20T19:30:17;1006.8705229165552;;;31.8203125;61.74662298595461
61740;BME280;47645;45.288;12.038;2023-07-20T19:40:18;1007.1221853721152;;;31.4888671875;62.748739629488966
61740;BME280;47645;45.288;12.038;2023-07-20T19:50:20;1007.2017512710877;;;31.24921875;63.30546008586877
61740;BME280;47645;45.288;12.038;2023-07-20T20:00:24;1007.2316744110549;;;31.0044921875;63.60339188877096
61740;BME280;47645;45.288;12.038;2023-07-20T20:10:25;1007.400589546155;;;30.6580078125;64.10599734660799
61740;BME280;47645;45.288;12.038;2023-07-20T20:20:30;1007.3458440268253;;;30.4896484375;65.03033895701444
61740;BME280;47645;45.288;12.038;2023-07-20T20:30:27;1007.4283622078739;;;30.2755859375;65.28234452362324
61740;BME280;47645;45.288;12.038;2023-07-20T20:40:29;1007.6118211824327;;;30.0919921875;65.45837629569569
61740;BME280;47645;45.288;12.038;2023-07-20T20:50:31;1007.6008079424023;;;29.91875;65.76999933886478
61740;BME280;47645;45.288;12.038;2023-07-20T21:00:34;1007.5565859969116;;;29.79140625;66.14617901846034
61740;BME280;47645;45.288;12.038;2023-07-20T21:10:35;1007.6493150991092;;;29.592578125;66.39214488950819
61740;BME280;47645;45.288;12.038;2023-07-20T21:20:38;1007.7089770644513;;;29.4802734375;66.33312072771686
61740;BME280;47645;45.288;12.038;2023-07-20T21:30:39;1007.6458800589985;;;29.3580078125;66.90766016408772
61740;BME280;47645;45.288;12.038;2023-07-20T21:40:42;1007.6627623706815;;;29.2560546875;66.94814701979168
61740;BME280;47645;45.288;12.038;2023-07-20T21:50:46;1007.6227829690433;;;29.11328125;67.0342071990573
61740;BME280;47645;45.288;12.038;2023-07-20T22:00:45;1007.4202053897867;;;29.001171875;67.46832229595947
61740;BME280;47645;45.288;12.038;2023-07-20T22:10:46;1007.2929211066662;;;28.89921875;67.45056441122864
61740;BME280;47645;45.288;12.038;2023-07-20T22:20:48;1007.3537395361392;;;28.8279296875;68.04450878727644
61740;BME280;47645;45.288;12.038;2023-07-20T22:30:55;1007.3643134304772;;;28.8125;67.51551874060421
61740;BME280;47645;45.288;12.038;2023-07-20T22:40:50;1007.5132445957488;;;28.6240234375;68.14301985595077
61740;BME280;47645;45.288;12.038;2023-07-20T22:50:53;1007.6596062074161;;;28.10390625;78.8702128928416
61740;BME280;47645;45.288;12.038;2023-07-20T23:00:54;1007.8141595581636;;;27.5126953125;88.29600107486657
61740;BME280;47645;45.288;12.038;2023-07-20T23:10:56;1007.7169866761308;;;27.1966796875;88.01127086052254
61740;BME280;47645;45.288;12.038;2023-07-20T23:20:57;1007.954514707653;;;27.4107421875;90.52649529000536
61740;BME280;47645;45.288;12.038;2023-07-20T23:30:59;1007.9891360544375;;;26.9263671875;94.08321937669498
61740;BME280;47645;45.288;12.038;2023-07-20T23:41:00;1007.7308775202599;;;27.2169921875;89.81665102541727
61740;BME280;47645;45.288;12.038;2023-07-20T23:51:03;1007.7165978621465;;;26.7173828125;99.69129172059603
